sensor_id;sensor_type;location;lat;lon;timestamp;P1;P2;P0
56495;PMS5003;42804;55.762;38.084;2022-10-24T00:01:35;24.50;21.50;11.75
56495;PMS5003;42804;55.762;38.084;2022-10-24T00:04:03;24.25;22.50;12.50
56495;PMS5003;42804;55.762;38.084;2022-10-24T00:06:36;23.00;21.25;11.75
56495;PMS5003;42804;55.762;38.084;2022-10-24T00:09:04;27.50;22.75;13.75
56495;PMS5003;42804;55.762;38.084;2022-10-24T00:11:34;20.75;18.00;11.50
56495;PMS5003;42804;55.762;38.084;2022-10-24T00:14:04;25.00;21.25;11.25
56495;PMS5003;42804;55.762;38.084;2022-10-24T00:16:32;26.25;21.50;13.00
56495;PMS5003;42804;55.762;38.084;2022-10-24T00:19:01;23.25;19.00;9.25
56495;PMS5003;42804;55.762;38.084;2022-10-24T00:21:29;20.00;19.00;12.75
56495;PMS5003;42804;55.762;38.084;2022-10-24T00:23:57;15.75;13.25;8.00
56495;PMS5003;42804;55.762;38.084;2022-10-24T00:26:25;21.75;18.00;10.75
56495;PMS5003;42804;55.762;38.084;2022-10-24T00:28:55;22.00;20.50;10.00
56495;PMS5003;42804;55.762;38.084;2022-10-24T00:31:23;15.00;14.00;11.50
56495;PMS5003;42804;55.762;38.084;2022-10-24T00:33:52;22.25;18.75;12.25
56495;PMS5003;42804;55.762;38.084;2022-10-24T00:36:22;25.25;22.00;11.50
56495;PMS5003;42804;55.762;38.084;2022-10-24T00:38:51;18.75;15.75;8.25
56495;PMS5003;42804;55.762;38.084;2022-10-24T00:41:19;22.50;20.00;12.00
56495;PMS5003;42804;55.762;38.084;2022-10-24T00:43:48;22.00;18.75;11.00
56495;PMS5003;42804;55.762;38.084;2022-10-24T00:46:17;21.75;19.75;9.50
56495;PMS5003;42804;55.762;38.084;2022-10-24T00:48:47;22.25;19.25;12.00
56495;PMS5003;42804;55.762;38.084;2022-10-24T00:51:18;12.00;8.75;5.50
56495;PMS5003;42804;55.762;38.084;2022-10-24T00:53:51;22.25;16.50;8.50
56495;PMS5003;42804;55.762;38.084;2022-10-24T00:56:21;21.75;18.75;12.00
56495;PMS5003;42804;55.762;38.084;2022-10-24T00:58:49;25.50;18.50;10.00
56495;PMS5003;42804;55.762;38.084;2022-10-24T01:01:20;18.50;14.75;6.75
56495;PMS5003;42804;55.762;38.084;2022-10-24T01:03:48;17.50;14.00;9.50
56495;PMS5003;42804;55.762;38.084;2022-10-24T01:06:20;21.25;15.50;9.25
56495;PMS5003;42804;55.762;38.084;2022-10-24T01:08:51;17.75;15.25;10.50
56495;PMS5003;42804;55.762;38.084;2022-10-24T01:11:31;19.33;18.33;11.00
56495;PMS5003;42804;55.762;38.084;2022-10-24T01:14:05;9.25;7.00;0.75
56495;PMS5003;42804;55.762;38.084;2022-10-24T01:16:44;21.00;16.25;9.75
56495;PMS5003;42804;55.762;38.084;2022-10-24T01:19:19;18.75;17.50;10.00
56495;PMS5003;42804;55.762;38.084;2022-10-24T01:21:54;20.00;16.75;9.75
56495;PMS5003;42804;55.762;38.084;2022-10-24T01:24:38;18.25;15.50;8.50
56495;PMS5003;42804;55.762;38.084;2022-10-24T01:30:05;21.33;18.33;9.33
56495;PMS5003;42804;55.762;38.084;2022-10-24T01:32:36;19.00;17.50;10.50
56495;PMS5003;42804;55.762;38.084;2022-10-24T01:35:14;18.75;17.25;11.00
56495;PMS5003;42804;55.762;38.084;2022-10-24T01:37:44;20.00;16.50;9.75
56495;PMS5003;42804;55.762;38.084;2022-10-24T01:40:16;15.25;15.00;9.50
56495;PMS5003;42804;55.762;38.084;2022-10-24T01:42:45;20.25;17.00;9.00
56495;PMS5003;42804;55.762;38.084;2022-10-24T01:45:17;19.25;16.00;12.25
56495;PMS5003;42804;55.762;38.084;2022-10-24T01:47:49;1.00;1.00;0.00
56495;PMS5003;42804;55.762;38.084;2022-10-24T01:50:18;17.50;14.75;10.00
56495;PMS5003;42804;55.762;38.084;2022-10-24T01:52:48;15.75;13.75;6.50
56495;PMS5003;42804;55.762;38.084;2022-10-24T01:55:17;20.75;18.75;11.00
56495;PMS5003;42804;55.762;38.084;2022-10-24T01:57:45;12.25;7.25;4.25
56495;PMS5003;42804;55.762;38.084;2022-10-24T02:00:17;16.00;15.00;8.75
56495;PMS5003;42804;55.762;38.084;2022-10-24T02:02:46;21.25;18.75;12.75
56495;PMS5003;42804;55.762;38.084;2022-10-24T02:05:18;19.25;16.50;10.00
56495;PMS5003;42804;55.762;38.084;2022-10-24T02:07:49;22.25;18.25;11.25
56495;PMS5003;42804;55.762;38.084;2022-10-24T02:10:18;24.50;22.00;12.00
56495;PMS5003;42804;55.762;38.084;2022-10-24T02:12:56;22.50;18.50;10.75
56495;PMS5003;42804;55.762;38.084;2022-10-24T02:15:26;29.00;22.00;11.00
56495;PMS5003;42804;55.762;38.084;2022-10-24T02:17:56;26.00;21.75;13.00
56495;PMS5003;42804;55.762;38.084;2022-10-24T02:20:26;23.50;19.25;9.00
56495;PMS5003;42804;55.762;38.084;2022-10-24T02:22:56;26.00;22.25;16.00
56495;PMS5003;42804;55.762;38.084;2022-10-24T02:25:29;22.25;18.00;13.00
56495;PMS5003;42804;55.762;38.084;2022-10-24T02:28:02;21.00;20.00;11.25
56495;PMS5003;42804;55.762;38.084;2022-10-24T02:30:33;27.75;23.50;14.00
56495;PMS5003;42804;55.762;38.084;2022-10-24T02:33:02;24.25;19.50;11.75
56495;PMS5003;42804;55.762;38.084;2022-10-24T02:35:31;28.25;23.75;15.00
56495;PMS5003;42804;55.762;38.084;2022-10-24T02:38:02;32.25;25.00;15.50
56495;PMS5003;42804;55.762;38.084;2022-10-24T02:40:31;20.50;19.00;13.00
56495;PMS5003;42804;55.762;38.084;2022-10-24T02:42:59;30.00;27.25;15.75
56495;PMS5003;42804;55.762;38.084;2022-10-24T02:45:28;24.50;19.75;12.00
56495;PMS5003;42804;55.762;38.084;2022-10-24T02:47:59;25.75;21.50;14.00
56495;PMS5003;42804;55.762;38.084;2022-10-24T02:50:29;22.75;18.75;9.00
56495;PMS5003;42804;55.762;38.084;2022-10-24T02:52:59;26.50;22.50;13.25
56495;PMS5003;42804;55.762;38.084;2022-10-24T02:55:27;18.33;17.33;10.33
56495;PMS5003;42804;55.762;38.084;2022-10-24T02:57:55;22.75;21.50;10.50
56495;PMS5003;42804;55.762;38.084;2022-10-24T03:00:23;31.00;22.50;12.75
56495;PMS5003;42804;55.762;38.084;2022-10-24T03:02:51;23.00;19.25;11.50
56495;PMS5003;42804;55.762;38.084;2022-10-24T03:05:20;24.75;23.50;12.50
56495;PMS5003;42804;55.762;38.084;2022-10-24T03:07:49;30.00;26.50;17.00
56495;PMS5003;42804;55.762;38.084;2022-10-24T03:10:17;29.75;24.50;14.50
56495;PMS5003;42804;55.762;38.084;2022-10-24T03:12:45;26.00;23.00;15.25
56495;PMS5003;42804;55.762;38.084;2022-10-24T03:15:13;33.00;21.75;13.00
56495;PMS5003;42804;55.762;38.084;2022-10-24T03:17:41;33.25;24.75;15.75
56495;PMS5003;42804;55.762;38.084;2022-10-24T03:20:10;32.25;28.25;15.50
56495;PMS5003;42804;55.762;38.084;2022-10-24T03:22:40;23.00;18.75;7.50
56495;PMS5003;42804;55.762;38.084;2022-10-24T03:25:08;20.50;16.75;9.50
56495;PMS5003;42804;55.762;38.084;2022-10-24T03:27:38;25.50;22.00;10.50
56495;PMS5003;42804;55.762;38.084;2022-10-24T03:30:07;25.25;17.75;8.50
56495;PMS5003;42804;55.762;38.084;2022-10-24T03:32:35;27.50;24.25;13.00
56495;PMS5003;42804;55.762;38.084;2022-10-24T03:35:03;23.50;18.25;8.00
56495;PMS5003;42804;55.762;38.084;2022-10-24T03:37:37;26.75;23.00;14.00
56495;PMS5003;42804;55.762;38.084;2022-10-24T03:40:08;33.75;30.00;16.50
56495;PMS5003;42804;55.762;38.084;2022-10-24T03:42:38;38.25;31.25;17.25
56495;PMS5003;42804;55.762;38.084;2022-10-24T03:45:06;34.50;29.25;18.75
56495;PMS5003;42804;55.762;38.084;2022-10-24T03:47:34;44.50;33.50;19.75
56495;PMS5003;42804;55.762;38.084;2022-10-24T03:50:03;36.75;30.50;17.50
56495;PMS5003;42804;55.762;38.084;2022-10-24T03:52:31;31.50;25.00;13.00
56495;PMS5003;42804;55.762;38.084;2022-10-24T03:54:59;37.25;30.25;19.00
56495;PMS5003;42804;55.762;38.084;2022-10-24T03:57:30;32.50;30.75;20.25
56495;PMS5003;42804;55.762;38.084;2022-10-24T03:59:58;28.00;21.00;8.50
56495;PMS5003;42804;55.762;38.084;2022-10-24T04:02:26;29.00;24.75;13.50
56495;PMS5003;42804;55.762;38.084;2022-10-24T04:04:54;33.75;30.75;17.75
56495;PMS5003;42804;55.762;38.084;2022-10-24T04:07:24;31.25;20.75;12.00
56495;PMS5003;42804;55.762;38.084;2022-10-24T04:09:52;28.75;25.50;15.50
56495;PMS5003;42804;55.762;38.084;2022-10-24T04:12:21;10.50;6.00;3.00
56495;PMS5003;42804;55.762;38.084;2022-10-24T04:14:51;33.75;30.75;18.50
56495;PMS5003;42804;55.762;38.084;2022-10-24T04:17:19;35.75;27.75;15.75
56495;PMS5003;42804;55.762;38.084;2022-10-24T04:19:47;14.50;14.50;9.00
56495;PMS5003;42804;55.762;38.084;2022-10-24T04:22:15;24.75;21.75;12.75
56495;PMS5003;42804;55.762;38.084;2022-10-24T04:24:43;19.50;14.50;8.50
56495;PMS5003;42804;55.762;38.084;2022-10-24T04:27:11;25.75;24.00;15.75
56495;PMS5003;42804;55.762;38.084;2022-10-24T04:29:39;27.00;20.00;10.50
56495;PMS5003;42804;55.762;38.084;2022-10-24T04:32:09;29.25;24.50;14.50
56495;PMS5003;42804;55.762;38.084;2022-10-24T04:34:37;28.50;24.75;14.00
56495;PMS5003;42804;55.762;38.084;2022-10-24T04:37:05;29.00;27.00;14.25
56495;PMS5003;42804;55.762;38.084;2022-10-24T04:39:33;27.75;22.50;13.50
56495;PMS5003;42804;55.762;38.084;2022-10-24T04:42:01;32.50;26.00;14.25
56495;PMS5003;42804;55.762;38.084;2022-10-24T04:44:29;30.75;27.50;15.00
56495;PMS5003;42804;55.762;38.084;2022-10-24T04:46:58;31.75;24.75;14.50
56495;PMS5003;42804;55.762;38.084;2022-10-24T04:49:27;25.00;19.75;12.00
56495;PMS5003;42804;55.762;38.084;2022-10-24T04:51:55;17.50;12.50;8.00
56495;PMS5003;42804;55.762;38.084;2022-10-24T04:54:23;24.50;22.50;14.00
56495;PMS5003;42804;55.762;38.084;2022-10-24T04:56:51;23.75;19.50;12.00
56495;PMS5003;42804;55.762;38.084;2022-10-24T04:59:19;23.50;19.00;9.50
56495;PMS5003;42804;55.762;38.084;2022-10-24T05:01:50;23.25;20.00;9.25
56495;PMS5003;42804;55.762;38.084;2022-10-24T05:04:20;21.50;17.50;11.00
56495;PMS5003;42804;55.762;38.084;2022-10-24T05:06:49;14.25;12.50;7.50
56495;PMS5003;42804;55.762;38.084;2022-10-24T05:09:18;26.25;25.75;17.25
56495;PMS5003;42804;55.762;38.084;2022-10-24T05:11:46;22.00;21.25;13.25
56495;PMS5003;42804;55.762;38.084;2022-10-24T05:14:14;18.75;17.50;8.75
56495;PMS5003;42804;55.762;38.084;2022-10-24T05:16:42;25.50;22.25;14.25
56495;PMS5003;42804;55.762;38.084;2022-10-24T05:19:14;24.00;20.75;11.75
56495;PMS5003;42804;55.762;38.084;2022-10-24T05:21:42;17.75;16.00;10.00
56495;PMS5003;42804;55.762;38.084;2022-10-24T05:24:11;24.75;17.75;11.75
56495;PMS5003;42804;55.762;38.084;2022-10-24T05:26:39;21.75;16.50;10.00
56495;PMS5003;42804;55.762;38.084;2022-10-24T05:29:07;15.25;13.25;4.00
56495;PMS5003;42804;55.762;38.084;2022-10-24T05:31:36;11.25;11.00;7.00
56495;PMS5003;42804;55.762;38.084;2022-10-24T05:34:04;20.25;16.00;8.00
56495;PMS5003;42804;55.762;38.084;2022-10-24T05:36:33;14.00;13.75;7.00
56495;PMS5003;42804;55.762;38.084;2022-10-24T05:39:01;17.00;15.00;9.25
56495;PMS5003;42804;55.762;38.084;2022-10-24T05:41:31;17.75;15.00;11.00
56495;PMS5003;42804;55.762;38.084;2022-10-24T05:43:59;18.75;16.00;7.25
56495;PMS5003;42804;55.762;38.084;2022-10-24T05:46:27;20.75;19.50;10.25
56495;PMS5003;42804;55.762;38.084;2022-10-24T05:48:56;22.75;21.75;13.50
56495;PMS5003;42804;55.762;38.084;2022-10-24T05:51:25;22.00;19.75;12.50
56495;PMS5003;42804;55.762;38.084;2022-10-24T05:53:53;14.00;10.75;4.25
56495;PMS5003;42804;55.762;38.084;2022-10-24T05:56:21;8.50;7.75;4.25
56495;PMS5003;42804;55.762;38.084;2022-10-24T05:58:51;21.75;17.50;10.00
56495;PMS5003;42804;55.762;38.084;2022-10-24T06:01:19;19.75;16.75;11.00
56495;PMS5003;42804;55.762;38.084;2022-10-24T06:03:47;18.00;14.00;8.00
56495;PMS5003;42804;55.762;38.084;2022-10-24T06:06:16;25.50;19.75;13.25
56495;PMS5003;42804;55.762;38.084;2022-10-24T06:08:44;20.50;18.75;11.00
56495;PMS5003;42804;55.762;38.084;2022-10-24T06:11:12;13.00;11.00;4.50
56495;PMS5003;42804;55.762;38.084;2022-10-24T06:13:41;24.25;21.25;13.25
56495;PMS5003;42804;55.762;38.084;2022-10-24T06:16:12;20.00;19.00;12.00
56495;PMS5003;42804;55.762;38.084;2022-10-24T06:18:46;22.75;17.25;11.75
56495;PMS5003;42804;55.762;38.084;2022-10-24T06:21:15;15.75;15.75;11.00
56495;PMS5003;42804;55.762;38.084;2022-10-24T06:23:49;21.00;18.25;10.50
56495;PMS5003;42804;55.762;38.084;2022-10-24T06:26:18;11.75;9.00;4.50
56495;PMS5003;42804;55.762;38.084;2022-10-24T06:28:50;19.00;16.50;11.00
56495;PMS5003;42804;55.762;38.084;2022-10-24T06:31:19;21.75;17.50;12.00
56495;PMS5003;42804;55.762;38.084;2022-10-24T06:33:47;16.00;12.50;6.75
56495;PMS5003;42804;55.762;38.084;2022-10-24T06:36:16;16.00;16.00;8.00
56495;PMS5003;42804;55.762;38.084;2022-10-24T06:38:44;18.75;17.50;9.00
56495;PMS5003;42804;55.762;38.084;2022-10-24T06:41:13;19.00;18.75;11.00
56495;PMS5003;42804;55.762;38.084;2022-10-24T06:43:42;11.75;8.00;2.25
56495;PMS5003;42804;55.762;38.084;2022-10-24T06:46:11;15.00;12.50;6.25
56495;PMS5003;42804;55.762;38.084;2022-10-24T06:48:42;20.50;18.00;10.00
56495;PMS5003;42804;55.762;38.084;2022-10-24T06:51:13;18.50;15.50;9.00
56495;PMS5003;42804;55.762;38.084;2022-10-24T06:53:41;21.50;18.00;11.00
56495;PMS5003;42804;55.762;38.084;2022-10-24T06:56:09;16.75;14.25;8.50
56495;PMS5003;42804;55.762;38.084;2022-10-24T06:58:38;17.00;12.00;7.25
56495;PMS5003;42804;55.762;38.084;2022-10-24T07:01:09;17.75;17.75;12.50
56495;PMS5003;42804;55.762;38.084;2022-10-24T07:03:39;10.50;7.25;4.00
56495;PMS5003;42804;55.762;38.084;2022-10-24T07:06:15;19.00;18.00;9.00
56495;PMS5003;42804;55.762;38.084;2022-10-24T07:08:44;16.75;13.00;8.00
56495;PMS5003;42804;55.762;38.084;2022-10-24T07:11:12;18.25;16.75;9.50
56495;PMS5003;42804;55.762;38.084;2022-10-24T07:13:41;16.00;14.25;9.50
56495;PMS5003;42804;55.762;38.084;2022-10-24T07:16:09;14.00;13.75;8.00
56495;PMS5003;42804;55.762;38.084;2022-10-24T07:18:38;15.75;13.75;6.75
56495;PMS5003;42804;55.762;38.084;2022-10-24T07:21:07;12.50;12.00;8.00
56495;PMS5003;42804;55.762;38.084;2022-10-24T07:23:37;16.00;12.50;8.25
56495;PMS5003;42804;55.762;38.084;2022-10-24T07:26:07;13.75;13.75;8.75
56495;PMS5003;42804;55.762;38.084;2022-10-24T07:28:35;13.25;12.00;8.25
56495;PMS5003;42804;55.762;38.084;2022-10-24T07:31:04;12.00;11.75;7.75
56495;PMS5003;42804;55.762;38.084;2022-10-24T07:33:35;9.00;7.50;5.00
56495;PMS5003;42804;55.762;38.084;2022-10-24T07:36:07;10.50;9.00;6.00
56495;PMS5003;42804;55.762;38.084;2022-10-24T07:38:35;16.00;9.00;5.00
56495;PMS5003;42804;55.762;38.084;2022-10-24T07:41:05;13.75;12.25;7.00
56495;PMS5003;42804;55.762;38.084;2022-10-24T07:43:33;15.00;14.00;7.00
56495;PMS5003;42804;55.762;38.084;2022-10-24T07:46:04;9.00;8.00;6.00
56495;PMS5003;42804;55.762;38.084;2022-10-24T07:48:32;7.75;5.75;3.00
56495;PMS5003;42804;55.762;38.084;2022-10-24T07:51:03;14.25;11.25;6.00
56495;PMS5003;42804;55.762;38.084;2022-10-24T07:53:32;6.00;5.25;1.00
56495;PMS5003;42804;55.762;38.084;2022-10-24T07:56:00;12.75;9.75;4.75
56495;PMS5003;42804;55.762;38.084;2022-10-24T07:58:32;18.00;14.25;7.25
56495;PMS5003;42804;55.762;38.084;2022-10-24T08:01:02;5.75;4.25;1.75
56495;PMS5003;42804;55.762;38.084;2022-10-24T08:03:30;11.75;8.25;4.25
56495;PMS5003;42804;55.762;38.084;2022-10-24T08:06:00;12.50;9.75;4.50
56495;PMS5003;42804;55.762;38.084;2022-10-24T08:08:31;12.25;10.25;7.00
56495;PMS5003;42804;55.762;38.084;2022-10-24T08:11:05;4.00;3.00;1.00
56495;PMS5003;42804;55.762;38.084;2022-10-24T08:13:35;11.00;9.50;5.00
56495;PMS5003;42804;55.762;38.084;2022-10-24T08:16:04;9.50;8.00;4.00
56495;PMS5003;42804;55.762;38.084;2022-10-24T08:18:33;7.75;6.50;2.00
56495;PMS5003;42804;55.762;38.084;2022-10-24T08:21:05;11.00;9.50;6.00
56495;PMS5003;42804;55.762;38.084;2022-10-24T08:23:34;11.25;10.25;6.00
56495;PMS5003;42804;55.762;38.084;2022-10-24T08:26:03;4.50;4.00;1.00
56495;PMS5003;42804;55.762;38.084;2022-10-24T08:28:31;9.25;9.00;5.00
56495;PMS5003;42804;55.762;38.084;2022-10-24T08:31:01;8.75;8.00;4.75
56495;PMS5003;42804;55.762;38.084;2022-10-24T08:33:31;6.50;5.00;2.50
56495;PMS5003;42804;55.762;38.084;2022-10-24T08:36:00;5.00;5.00;2.00
56495;PMS5003;42804;55.762;38.084;2022-10-24T08:38:29;12.00;9.75;7.00
56495;PMS5003;42804;55.762;38.084;2022-10-24T08:40:57;9.00;5.75;2.00
56495;PMS5003;42804;55.762;38.084;2022-10-24T08:43:25;9.00;8.50;5.00
56495;PMS5003;42804;55.762;38.084;2022-10-24T08:45:56;11.00;6.00;5.00
56495;PMS5003;42804;55.762;38.084;2022-10-24T08:48:31;11.75;10.25;8.00
56495;PMS5003;42804;55.762;38.084;2022-10-24T08:51:04;9.25;7.00;5.00
56495;PMS5003;42804;55.762;38.084;2022-10-24T08:53:33;4.75;4.00;1.00
56495;PMS5003;42804;55.762;38.084;2022-10-24T08:56:03;6.75;6.50;4.00
56495;PMS5003;42804;55.762;38.084;2022-10-24T08:58:33;5.00;3.00;1.50
56495;PMS5003;42804;55.762;38.084;2022-10-24T09:01:03;3.00;1.50;0.25
56495;PMS5003;42804;55.762;38.084;2022-10-24T09:03:37;2.00;2.00;1.00
56495;PMS5003;42804;55.762;38.084;2022-10-24T09:06:21;7.00;7.00;4.00
56495;PMS5003;42804;55.762;38.084;2022-10-24T09:08:52;8.00;7.75;5.50
56495;PMS5003;42804;55.762;38.084;2022-10-24T09:11:27;9.75;9.75;6.00
56495;PMS5003;42804;55.762;38.084;2022-10-24T09:13:59;9.25;8.00;2.00
56495;PMS5003;42804;55.762;38.084;2022-10-24T09:16:28;6.00;5.50;2.00
56495;PMS5003;42804;55.762;38.084;2022-10-24T09:18:58;8.50;6.00;3.00
56495;PMS5003;42804;55.762;38.084;2022-10-24T09:21:27;6.50;5.25;3.75
56495;PMS5003;42804;55.762;38.084;2022-10-24T09:23:55;7.50;5.75;4.00
56495;PMS5003;42804;55.762;38.084;2022-10-24T09:26:25;11.25;9.25;6.50
56495;PMS5003;42804;55.762;38.084;2022-10-24T09:28:54;7.50;6.00;4.00
56495;PMS5003;42804;55.762;38.084;2022-10-24T09:31:24;10.50;9.00;5.00
56495;PMS5003;42804;55.762;38.084;2022-10-24T09:33:53;9.00;7.75;5.00
56495;PMS5003;42804;55.762;38.084;2022-10-24T09:36:28;12.75;12.25;8.00
56495;PMS5003;42804;55.762;38.084;2022-10-24T09:38:59;7.00;5.75;1.00
56495;PMS5003;42804;55.762;38.084;2022-10-24T09:41:47;12.50;12.50;7.50
56495;PMS5003;42804;55.762;38.084;2022-10-24T09:44:26;4.25;2.25;1.00
56495;PMS5003;42804;55.762;38.084;2022-10-24T09:46:55;4.25;4.00;1.00
56495;PMS5003;42804;55.762;38.084;2022-10-24T09:49:27;4.00;4.00;1.00
56495;PMS5003;42804;55.762;38.084;2022-10-24T09:52:01;4.00;4.00;2.00
56495;PMS5003;42804;55.762;38.084;2022-10-24T09:54:30;4.25;4.00;2.00
56495;PMS5003;42804;55.762;38.084;2022-10-24T09:57:01;4.25;3.50;1.00
56495;PMS5003;42804;55.762;38.084;2022-10-24T10:27:00;13.75;11.00;5.00
56495;PMS5003;42804;55.762;38.084;2022-10-24T10:29:28;7.50;5.00;2.50
56495;PMS5003;42804;55.762;38.084;2022-10-24T10:31:57;6.50;5.00;4.00
56495;PMS5003;42804;55.762;38.084;2022-10-24T10:34:30;5.75;5.75;2.00
56495;PMS5003;42804;55.762;38.084;2022-10-24T10:37:22;8.00;7.50;4.25
56495;PMS5003;42804;55.762;38.084;2022-10-24T10:40:11;8.50;7.25;4.50
56495;PMS5003;42804;55.762;38.084;2022-10-24T10:42:43;2.50;2.50;2.00
56495;PMS5003;42804;55.762;38.084;2022-10-24T10:45:18;6.50;5.00;3.00
56495;PMS5003;42804;55.762;38.084;2022-10-24T10:47:52;7.50;6.00;4.00
56495;PMS5003;42804;55.762;38.084;2022-10-24T10:50:27;4.75;4.50;2.00
56495;PMS5003;42804;55.762;38.084;2022-10-24T10:53:04;6.75;6.25;4.25
56495;PMS5003;42804;55.762;38.084;2022-10-24T10:55:41;9.00;5.50;4.50
56495;PMS5003;42804;55.762;38.084;2022-10-24T10:58:16;4.75;3.50;2.50
56495;PMS5003;42804;55.762;38.084;2022-10-24T11:00:49;6.00;5.75;2.00
56495;PMS5003;42804;55.762;38.084;2022-10-24T11:03:25;8.75;7.00;4.00
56495;PMS5003;42804;55.762;38.084;2022-10-24T11:08:58;8.00;8.00;5.50
56495;PMS5003;42804;55.762;38.084;2022-10-24T11:11:28;5.25;5.00;3.00
56495;PMS5003;42804;55.762;38.084;2022-10-24T11:14:13;5.00;4.75;2.00
56495;PMS5003;42804;55.762;38.084;2022-10-24T11:16:43;5.00;3.75;0.50
56495;PMS5003;42804;55.762;38.084;2022-10-24T11:19:18;5.50;5.00;3.00
56495;PMS5003;42804;55.762;38.084;2022-10-24T11:21:48;7.50;4.75;3.50
56495;PMS5003;42804;55.762;38.084;2022-10-24T11:24:17;6.00;5.75;3.00
56495;PMS5003;42804;55.762;38.084;2022-10-24T11:26:49;7.25;7.00;5.25
56495;PMS5003;42804;55.762;38.084;2022-10-24T11:29:22;0.75;0.50;0.00
56495;PMS5003;42804;55.762;38.084;2022-10-24T11:31:52;6.75;4.00;3.00
56495;PMS5003;42804;55.762;38.084;2022-10-24T11:34:23;4.50;4.00;3.00
56495;PMS5003;42804;55.762;38.084;2022-10-24T11:36:54;4.00;3.50;1.00
56495;PMS5003;42804;55.762;38.084;2022-10-24T11:39:26;1.00;1.00;0.00
56495;PMS5003;42804;55.762;38.084;2022-10-24T11:41:57;5.00;4.00;2.00
56495;PMS5003;42804;55.762;38.084;2022-10-24T11:44:32;2.00;2.00;1.00
56495;PMS5003;42804;55.762;38.084;2022-10-24T11:47:03;1.75;1.00;0.50
56495;PMS5003;42804;55.762;38.084;2022-10-24T11:49:35;1.75;1.75;1.00
56495;PMS5003;42804;55.762;38.084;2022-10-24T11:52:08;3.25;2.50;1.25
56495;PMS5003;42804;55.762;38.084;2022-10-24T11:54:42;4.25;2.00;0.00
56495;PMS5003;42804;55.762;38.084;2022-10-24T11:57:15;1.75;1.75;1.00
56495;PMS5003;42804;55.762;38.084;2022-10-24T11:59:47;3.50;3.00;2.00
56495;PMS5003;42804;55.762;38.084;2022-10-24T12:05:23;2.00;2.00;0.75
56495;PMS5003;42804;55.762;38.084;2022-10-24T12:08:00;3.50;1.50;1.00
56495;PMS5003;42804;55.762;38.084;2022-10-24T12:13:22;1.75;1.50;0.75
56495;PMS5003;42804;55.762;38.084;2022-10-24T12:16:01;0.00;0.00;0.00
56495;PMS5003;42804;55.762;38.084;2022-10-24T12:18:32;1.00;1.00;0.00
56495;PMS5003;42804;55.762;38.084;2022-10-24T12:21:01;0.75;0.75;0.75
56495;PMS5003;42804;55.762;38.084;2022-10-24T12:23:30;2.50;2.50;0.75
56495;PMS5003;42804;55.762;38.084;2022-10-24T12:26:05;2.00;2.00;1.00
56495;PMS5003;42804;55.762;38.084;2022-10-24T12:28:33;3.25;1.50;0.50
56495;PMS5003;42804;55.762;38.084;2022-10-24T12:31:11;1.75;1.75;0.00
56495;PMS5003;42804;55.762;38.084;2022-10-24T12:39:27;1.25;1.00;0.00
56495;PMS5003;42804;55.762;38.084;2022-10-24T12:41:55;0.50;0.00;0.00
56495;PMS5003;42804;55.762;38.084;2022-10-24T12:47:28;0.00;0.00;0.00
56495;PMS5003;42804;55.762;38.084;2022-10-24T12:49:57;0.00;0.00;0.00
56495;PMS5003;42804;55.762;38.084;2022-10-24T12:55:27;1.50;1.00;0.00
56495;PMS5003;42804;55.762;38.084;2022-10-24T12:57:56;0.25;0.25;0.00
56495;PMS5003;42804;55.762;38.084;2022-10-24T13:00:26;0.75;0.00;0.00
56495;PMS5003;42804;55.762;38.084;2022-10-24T13:03:04;0.00;0.00;0.00
56495;PMS5003;42804;55.762;38.084;2022-10-24T13:05:45;0.75;0.75;0.00
56495;PMS5003;42804;55.762;38.084;2022-10-24T13:08:23;0.00;0.00;0.00
56495;PMS5003;42804;55.762;38.084;2022-10-24T13:11:05;1.00;0.00;0.00
56495;PMS5003;42804;55.762;38.084;2022-10-24T13:16:32;0.50;0.00;0.00
56495;PMS5003;42804;55.762;38.084;2022-10-24T13:19:07;0.00;0.00;0.00
56495;PMS5003;42804;55.762;38.084;2022-10-24T13:21:42;0.25;0.25;0.00
56495;PMS5003;42804;55.762;38.084;2022-10-24T13:30:01;1.00;0.00;0.00
56495;PMS5003;42804;55.762;38.084;2022-10-24T13:32:30;0.00;0.00;0.00
56495;PMS5003;42804;55.762;38.084;2022-10-24T13:35:02;0.00;0.00;0.00
56495;PMS5003;42804;55.762;38.084;2022-10-24T13:37:33;1.00;0.50;0.00
56495;PMS5003;42804;55.762;38.084;2022-10-24T13:40:06;1.00;0.50;0.00
56495;PMS5003;42804;55.762;38.084;2022-10-24T13:42:39;0.50;0.50;0.00
56495;PMS5003;42804;55.762;38.084;2022-10-24T13:45:18;0.25;0.00;0.00
56495;PMS5003;42804;55.762;38.084;2022-10-24T13:47:48;1.00;1.00;0.00
56495;PMS5003;42804;55.762;38.084;2022-10-24T13:50:20;0.00;0.00;0.00
56495;PMS5003;42804;55.762;38.084;2022-10-24T13:52:49;2.00;1.00;0.00
56495;PMS5003;42804;55.762;38.084;2022-10-24T13:55:21;1.00;1.00;0.00
56495;PMS5003;42804;55.762;38.084;2022-10-24T13:57:53;0.00;0.00;0.00
56495;PMS5003;42804;55.762;38.084;2022-10-24T14:00:23;1.00;1.00;0.00
56495;PMS5003;42804;55.762;38.084;2022-10-24T14:02:52;0.00;0.00;0.00
56495;PMS5003;42804;55.762;38.084;2022-10-24T14:05:24;0.75;0.75;0.00
56495;PMS5003;42804;55.762;38.084;2022-10-24T14:07:56;0.00;0.00;0.00
56495;PMS5003;42804;55.762;38.084;2022-10-24T14:10:25;1.50;1.50;1.00
56495;PMS5003;42804;55.762;38.084;2022-10-24T14:12:54;0.75;0.75;0.00
56495;PMS5003;42804;55.762;38.084;2022-10-24T14:15:24;0.75;0.75;0.00
56495;PMS5003;42804;55.762;38.084;2022-10-24T14:17:55;0.00;0.00;0.00
56495;PMS5003;42804;55.762;38.084;2022-10-24T14:20:26;0.00;0.00;0.00
56495;PMS5003;42804;55.762;38.084;2022-10-24T14:22:56;0.00;0.00;0.00
56495;PMS5003;42804;55.762;38.084;2022-10-24T14:25:26;0.00;0.00;0.00
56495;PMS5003;42804;55.762;38.084;2022-10-24T14:27:57;0.00;0.00;0.00
56495;PMS5003;42804;55.762;38.084;2022-10-24T14:30:26;1.00;1.00;0.00
56495;PMS5003;42804;55.762;38.084;2022-10-24T14:33:04;0.25;0.25;0.00
56495;PMS5003;42804;55.762;38.084;2022-10-24T14:35:34;1.00;0.00;0.00
56495;PMS5003;42804;55.762;38.084;2022-10-24T14:38:03;1.00;0.75;0.00
56495;PMS5003;42804;55.762;38.084;2022-10-24T14:40:35;0.75;0.75;0.00
56495;PMS5003;42804;55.762;38.084;2022-10-24T14:43:03;2.00;0.75;0.00
56495;PMS5003;42804;55.762;38.084;2022-10-24T14:45:32;1.25;0.75;0.00
56495;PMS5003;42804;55.762;38.084;2022-10-24T14:48:00;1.00;0.50;0.00
56495;PMS5003;42804;55.762;38.084;2022-10-24T14:50:43;1.50;0.75;0.50
56495;PMS5003;42804;55.762;38.084;2022-10-24T14:53:23;1.00;1.00;0.00
56495;PMS5003;42804;55.762;38.084;2022-10-24T14:55:51;0.25;0.00;0.00
56495;PMS5003;42804;55.762;38.084;2022-10-24T14:58:22;4.00;2.00;1.00
56495;PMS5003;42804;55.762;38.084;2022-10-24T15:00:51;4.75;4.75;2.00
56495;PMS5003;42804;55.762;38.084;2022-10-24T15:03:20;7.25;5.00;4.00
56495;PMS5003;42804;55.762;38.084;2022-10-24T15:05:54;10.00;8.00;4.50
56495;PMS5003;42804;55.762;38.084;2022-10-24T15:08:24;10.00;10.00;7.25
56495;PMS5003;42804;55.762;38.084;2022-10-24T15:11:04;6.50;5.50;3.00